sensor_id;sensor_type;location;lat;lon;timestamp;temperature;humidity
49821;DHT22;36893;52.520;13.450;2023-02-18T00:07:59;22.20;72.50
49821;DHT22;36893;52.520;13.450;2023-02-18T00:18:00;22.30;72.50
49821;DHT22;36893;52.520;13.450;2023-02-18T00:28:01;22.20;72.40
49821;DHT22;36893;52.520;13.450;2023-02-18T00:38:01;22.20;72.40
49821;DHT22;36893;52.520;13.450;2023-02-18T00:48:02;22.20;72.40
49821;DHT22;36893;52.520;13.450;2023-02-18T00:58:03;22.20;72.30
49821;DHT22;36893;52.520;13.450;2023-02-18T01:08:04;22.10;72.20
49821;DHT22;36893;52.520;13.450;2023-02-18T01:18:06;22.20;72.20
49821;DHT22;36893;52.520;13.450;2023-02-18T01:28:08;22.10;72.20
49821;DHT22;36893;52.520;13.450;2023-02-18T01:38:11;22.10;72.10
49821;DHT22;36893;52.520;13.450;2023-02-18T01:48:19;22.00;72.00
49821;DHT22;36893;52.520;13.450;2023-02-18T01:58:22;22.10;72.90
49821;DHT22;36893;52.520;13.450;2023-02-18T02:08:23;22.00;72.00
49821;DHT22;36893;52.520;13.450;2023-02-18T02:18:55;22.00;72.00
49821;DHT22;36893;52.520;13.450;2023-02-18T03:01:11;21.90;72.00
49821;DHT22;36893;52.520;13.450;2023-02-18T03:11:49;21.80;71.90
49821;DHT22;36893;52.520;13.450;2023-02-18T03:21:59;21.80;71.90
49821;DHT22;36893;52.520;13.450;2023-02-18T03:32:06;21.80;71.90
49821;DHT22;36893;52.520;13.450;2023-02-18T03:42:07;21.70;71.80
49821;DHT22;36893;52.520;13.450;2023-02-18T03:52:09;21.70;71.70
49821;DHT22;36893;52.520;13.450;2023-02-18T04:02:10;21.70;71.80
49821;DHT22;36893;52.520;13.450;2023-02-18T04:12:11;21.70;71.80
49821;DHT22;36893;52.520;13.450;2023-02-18T04:22:11;21.70;71.80
49821;DHT22;36893;52.520;13.450;2023-02-18T04:32:12;21.60;71.80
49821;DHT22;36893;52.520;13.450;2023-02-18T04:42:13;21.60;71.80
49821;DHT22;36893;52.520;13.450;2023-02-18T04:52:13;21.60;71.70
49821;DHT22;36893;52.520;13.450;2023-02-18T05:02:14;21.60;71.80
49821;DHT22;36893;52.520;13.450;2023-02-18T05:12:15;21.60;71.80
49821;DHT22;36893;52.520;13.450;2023-02-18T05:22:15;21.60;71.80
49821;DHT22;36893;52.520;13.450;2023-02-18T05:32:16;21.50;71.70
49821;DHT22;36893;52.520;13.450;2023-02-18T05:42:17;21.60;71.80
49821;DHT22;36893;52.520;13.450;2023-02-18T05:52:17;21.50;71.70
49821;DHT22;36893;52.520;13.450;2023-02-18T06:02:18;21.50;71.70
49821;DHT22;36893;52.520;13.450;2023-02-18T06:12:19;21.50;71.70
49821;DHT22;36893;52.520;13.450;2023-02-18T06:22:19;21.50;71.70
49821;DHT22;36893;52.520;13.450;2023-02-18T06:32:20;21.50;71.70
49821;DHT22;36893;52.520;13.450;2023-02-18T06:42:20;21.50;71.70
49821;DHT22;36893;52.520;13.450;2023-02-18T06:52:21;21.50;71.70
49821;DHT22;36893;52.520;13.450;2023-02-18T07:02:22;21.40;71.60
49821;DHT22;36893;52.520;13.450;2023-02-18T07:12:22;21.40;71.60
49821;DHT22;36893;52.520;13.450;2023-02-18T07:22:23;21.40;71.60
49821;DHT22;36893;52.520;13.450;2023-02-18T07:32:24;21.40;71.70
49821;DHT22;36893;52.520;13.450;2023-02-18T07:42:25;21.30;71.60
49821;DHT22;36893;52.520;13.450;2023-02-18T07:52:25;21.30;71.60
49821;DHT22;36893;52.520;13.450;2023-02-18T08:02:26;21.30;71.50
49821;DHT22;36893;52.520;13.450;2023-02-18T08:12:26;21.30;71.70
49821;DHT22;36893;52.520;13.450;2023-02-18T08:22:27;21.20;71.80
49821;DHT22;36893;52.520;13.450;2023-02-18T08:32:28;21.20;71.90
49821;DHT22;36893;52.520;13.450;2023-02-18T08:42:29;21.20;72.00
49821;DHT22;36893;52.520;13.450;2023-02-18T08:52:29;21.20;72.20
49821;DHT22;36893;52.520;13.450;2023-02-18T09:02:30;21.20;72.30
49821;DHT22;36893;52.520;13.450;2023-02-18T09:12:31;21.20;72.60
49821;DHT22;36893;52.520;13.450;2023-02-18T09:22:32;21.20;72.70
49821;DHT22;36893;52.520;13.450;2023-02-18T09:32:33;21.20;72.90
49821;DHT22;36893;52.520;13.450;2023-02-18T09:42:34;21.20;73.10
49821;DHT22;36893;52.520;13.450;2023-02-18T09:52:36;21.30;73.40
49821;DHT22;36893;52.520;13.450;2023-02-18T10:02:40;21.30;73.60
49821;DHT22;36893;52.520;13.450;2023-02-18T10:12:45;21.20;73.90
49821;DHT22;36893;52.520;13.450;2023-02-18T10:22:45;21.20;74.00
49821;DHT22;36893;52.520;13.450;2023-02-18T10:32:46;21.20;74.10
49821;DHT22;36893;52.520;13.450;2023-02-18T10:53:26;21.10;74.20
49821;DHT22;36893;52.520;13.450;2023-02-18T11:03:42;21.10;74.30
49821;DHT22;36893;52.520;13.450;2023-02-18T11:13:44;21.10;74.30
49821;DHT22;36893;52.520;13.450;2023-02-18T11:23:47;21.10;74.10
49821;DHT22;36893;52.520;13.450;2023-02-18T11:43:55;21.10;74.20
49821;DHT22;36893;52.520;13.450;2023-02-18T12:04:29;21.10;74.00
49821;DHT22;36893;52.520;13.450;2023-02-18T12:14:35;21.10;74.00
49821;DHT22;36893;52.520;13.450;2023-02-18T12:24:39;21.00;73.90
49821;DHT22;36893;52.520;13.450;2023-02-18T12:35:16;21.00;73.80
49821;DHT22;36893;52.520;13.450;2023-02-18T12:46:09;21.00;73.90
49821;DHT22;36893;52.520;13.450;2023-02-18T12:56:44;21.00;73.80
49821;DHT22;36893;52.520;13.450;2023-02-18T13:07:04;21.00;73.90
49821;DHT22;36893;52.520;13.450;2023-02-18T13:17:12;21.10;74.80
49821;DHT22;36893;52.520;13.450;2023-02-18T13:27:23;21.20;73.60
49821;DHT22;36893;52.520;13.450;2023-02-18T13:48:24;21.50;73.40
49821;DHT22;36893;52.520;13.450;2023-02-18T13:58:36;21.50;73.30
49821;DHT22;36893;52.520;13.450;2023-02-18T14:08:40;21.50;73.20
49821;DHT22;36893;52.520;13.450;2023-02-18T14:39:13;21.60;73.00
49821;DHT22;36893;52.520;13.450;2023-02-18T14:59:41;21.70;72.90
49821;DHT22;36893;52.520;13.450;2023-02-18T15:09:47;21.70;72.80
49821;DHT22;36893;52.520;13.450;2023-02-18T15:19:55;21.70;72.80
49821;DHT22;36893;52.520;13.450;2023-02-18T15:40:17;21.80;72.80
49821;DHT22;36893;52.520;13.450;2023-02-18T15:50:24;21.80;72.70
49821;DHT22;36893;52.520;13.450;2023-02-18T16:00:32;21.90;72.80
49821;DHT22;36893;52.520;13.450;2023-02-18T16:10:48;21.90;72.70
49821;DHT22;36893;52.520;13.450;2023-02-18T16:21:00;21.90;72.70
49821;DHT22;36893;52.520;13.450;2023-02-18T16:31:03;22.00;72.80
49821;DHT22;36893;52.520;13.450;2023-02-18T16:41:04;22.00;72.70
49821;DHT22;36893;52.520;13.450;2023-02-18T16:51:10;22.00;72.70
49821;DHT22;36893;52.520;13.450;2023-02-18T17:11:29;22.00;72.80
49821;DHT22;36893;52.520;13.450;2023-02-18T17:21:32;22.10;72.70
49821;DHT22;36893;52.520;13.450;2023-02-18T17:31:35;22.10;72.70
49821;DHT22;36893;52.520;13.450;2023-02-18T17:41:38;22.10;72.70
49821;DHT22;36893;52.520;13.450;2023-02-18T17:51:38;22.10;72.70
49821;DHT22;36893;52.520;13.450;2023-02-18T18:01:39;22.10;72.40
49821;DHT22;36893;52.520;13.450;2023-02-18T18:11:41;22.20;72.10
49821;DHT22;36893;52.520;13.450;2023-02-18T18:21:43;22.20;72.00
49821;DHT22;36893;52.520;13.450;2023-02-18T18:31:46;22.20;72.00
49821;DHT22;36893;52.520;13.450;2023-02-18T18:41:46;22.20;72.00
49821;DHT22;36893;52.520;13.450;2023-02-18T18:51:47;22.20;71.90
49821;DHT22;36893;52.520;13.450;2023-02-18T19:01:48;22.20;71.90
49821;DHT22;36893;52.520;13.450;2023-02-18T19:11:48;22.20;71.80
49821;DHT22;36893;52.520;13.450;2023-02-18T19:21:49;22.20;71.80
49821;DHT22;36893;52.520;13.450;2023-02-18T19:31:50;22.20;71.80
49821;DHT22;36893;52.520;13.450;2023-02-18T19:41:50;22.20;71.80
49821;DHT22;36893;52.520;13.450;2023-02-18T19:51:51;22.30;71.80
49821;DHT22;36893;52.520;13.450;2023-02-18T20:01:52;22.30;71.80
49821;DHT22;36893;52.520;13.450;2023-02-18T20:11:52;22.30;71.80
49821;DHT22;36893;52.520;13.450;2023-02-18T20:21:53;22.30;71.80
49821;DHT22;36893;52.520;13.450;2023-02-18T20:31:55;22.30;71.80
49821;DHT22;36893;52.520;13.450;2023-02-18T20:41:56;22.30;71.80
49821;DHT22;36893;52.520;13.450;2023-02-18T20:51:56;22.40;71.80
49821;DHT22;36893;52.520;13.450;2023-02-18T21:01:57;22.40;71.80
49821;DHT22;36893;52.520;13.450;2023-02-18T21:11:58;22.40;71.80
49821;DHT22;36893;52.520;13.450;2023-02-18T21:21:58;22.40;71.80
49821;DHT22;36893;52.520;13.450;2023-02-18T21:31:59;22.40;71.80
49821;DHT22;36893;52.520;13.450;2023-02-18T21:42:00;22.40;71.80
49821;DHT22;36893;52.520;13.450;2023-02-18T21:52:04;22.40;71.80
49821;DHT22;36893;52.520;13.450;2023-02-18T22:02:15;22.50;71.90
49821;DHT22;36893;52.520;13.450;2023-02-18T22:12:34;22.50;72.80
49821;DHT22;36893;52.520;13.450;2023-02-18T22:22:35;22.50;71.90
49821;DHT22;36893;52.520;13.450;2023-02-18T22:32:35;22.50;71.90
49821;DHT22;36893;52.520;13.450;2023-02-18T22:42:36;22.50;71.90
49821;DHT22;36893;52.520;13.450;2023-02-18T22:52:37;22.50;71.90
49821;DHT22;36893;52.520;13.450;2023-02-18T23:02:37;22.50;71.90
49821;DHT22;36893;52.520;13.450;2023-02-18T23:12:38;22.50;71.90
49821;DHT22;36893;52.520;13.450;2023-02-18T23:22:38;22.60;71.90
49821;DHT22;36893;52.520;13.450;2023-02-18T23:32:41;22.50;71.80
49821;DHT22;36893;52.520;13.450;2023-02-18T23:42:41;22.50;71.80
49821;DHT22;36893;52.520;13.450;2023-02-18T23:52:42;22.50;71.80
